EWG8ZE LSZH-EDDL
Flight info
| Callsign | EWG8ZE |
|---|---|
| Flight time | 1h 0m |
| Altitude | 32000 |
| Route | DEGES Z1 ETAGO DCT HAREM DCT LOHRE Z850 ADEMI T854 DOMUX DOMUX2G |
| Aircraft | A320/M-SDE3FGHIRWY/LB1 |
Departure
| Time | 2026-02-17 13:45 |
|---|---|
| Airport | Zürich Airport (LSZH) |
Arrival
| Time | 2026-02-17 14:45 |
|---|---|
| Airport | Düsseldorf Airport (EDDL) |
| Time | Latitude | Longitude | Altitude | Speed | Heading |
|---|---|---|---|---|---|
| 2026-02-17 13:15 | 47.45409 | 8.55946 | 1407 ft | 0 kts | 186° |
| 2026-02-17 13:16 | 47.45411 | 8.55946 | 1407 ft | 0 kts | 186° |
| 2026-02-17 13:36 | 47.45423 | 8.55948 | 1428 ft | 3 kts | 187° |
| 2026-02-17 13:36 | 47.45443 | 8.55952 | 1397 ft | 3 kts | 187° |
| 2026-02-17 13:36 | 47.45463 | 8.55955 | 1408 ft | 3 kts | 181° |
| 2026-02-17 13:36 | 47.45483 | 8.55953 | 1409 ft | 3 kts | 158° |
| 2026-02-17 13:37 | 47.45494 | 8.55944 | 1412 ft | 1 kts | 99° |
| 2026-02-17 13:37 | 47.45495 | 8.55940 | 1412 ft | 0 kts | 96° |
| 2026-02-17 13:38 | 47.45494 | 8.55953 | 1415 ft | 7 kts | 97° |
| 2026-02-17 13:39 | 47.45478 | 8.56163 | 1407 ft | 9 kts | 95° |
| 2026-02-17 13:39 | 47.45491 | 8.56238 | 1414 ft | 7 kts | 41° |
| 2026-02-17 13:39 | 47.45552 | 8.56254 | 1414 ft | 9 kts | 5° |
| 2026-02-17 13:39 | 47.45609 | 8.56262 | 1412 ft | 9 kts | 6° |
| 2026-02-17 13:40 | 47.45684 | 8.56274 | 1413 ft | 11 kts | 6° |
| 2026-02-17 13:40 | 47.45761 | 8.56284 | 1415 ft | 12 kts | 4° |
| 2026-02-17 13:40 | 47.45839 | 8.56299 | 1418 ft | 11 kts | 10° |
| 2026-02-17 13:40 | 47.45913 | 8.56311 | 1416 ft | 11 kts | 6° |
| 2026-02-17 13:41 | 47.45987 | 8.56322 | 1412 ft | 11 kts | 5° |
| 2026-02-17 13:41 | 47.46019 | 8.56326 | 1411 ft | 0 kts | 5° |
| 2026-02-17 13:42 | 47.46027 | 8.56327 | 1414 ft | 6 kts | 5° |
| 2026-02-17 13:42 | 47.46108 | 8.56341 | 1411 ft | 14 kts | 8° |
| 2026-02-17 13:43 | 47.46218 | 8.56327 | 1410 ft | 0 kts | 315° |
| 2026-02-17 13:44 | 47.46248 | 8.56283 | 1414 ft | 26 kts | 316° |
| 2026-02-17 13:44 | 47.46584 | 8.55825 | 1401 ft | 102 kts | 317° |
| 2026-02-17 13:45 | 47.47255 | 8.54910 | 1386 ft | 157 kts | 317° |
| 2026-02-17 13:45 | 47.48146 | 8.53679 | 1659 ft | 179 kts | 315° |
| 2026-02-17 13:45 | 47.49053 | 8.52477 | 2509 ft | 173 kts | 313° |
| 2026-02-17 13:45 | 47.50069 | 8.51416 | 3070 ft | 190 kts | 323° |
| 2026-02-17 13:46 | 47.51256 | 8.50427 | 3571 ft | 198 kts | 324° |
| 2026-02-17 13:46 | 47.52392 | 8.49295 | 4228 ft | 196 kts | 310° |
| 2026-02-17 13:46 | 47.53176 | 8.47689 | 5047 ft | 191 kts | 293° |
| 2026-02-17 13:47 | 47.53407 | 8.43876 | 6507 ft | 194 kts | 258° |
| 2026-02-17 13:47 | 47.52880 | 8.42007 | 7241 ft | 198 kts | 251° |
| 2026-02-17 13:47 | 47.52323 | 8.40135 | 7957 ft | 201 kts | 249° |
| 2026-02-17 13:47 | 47.51393 | 8.38416 | 8332 ft | 235 kts | 221° |
| 2026-02-17 13:48 | 47.49700 | 8.37669 | 8727 ft | 277 kts | 185° |
| 2026-02-17 13:48 | 47.48412 | 8.38080 | 9169 ft | 296 kts | 162° |
| 2026-02-17 13:48 | 47.46370 | 8.40922 | 10159 ft | 321 kts | 119° |
| 2026-02-17 13:48 | 47.45783 | 8.44222 | 10434 ft | 345 kts | 90° |
| 2026-02-17 13:49 | 47.46033 | 8.47852 | 10650 ft | 366 kts | 76° |
| 2026-02-17 13:49 | 47.46522 | 8.51654 | 10956 ft | 383 kts | 76° |
| 2026-02-17 13:49 | 47.47028 | 8.55513 | 11581 ft | 389 kts | 76° |
| 2026-02-17 13:49 | 47.47382 | 8.58178 | 12074 ft | 392 kts | 76° |
| 2026-02-17 13:50 | 47.48093 | 8.63451 | 13059 ft | 396 kts | 75° |
| 2026-02-17 13:50 | 47.48453 | 8.66104 | 13559 ft | 398 kts | 75° |
| 2026-02-17 13:50 | 47.48997 | 8.70138 | 14239 ft | 401 kts | 75° |
| 2026-02-17 13:51 | 47.50088 | 8.78309 | 15478 ft | 408 kts | 74° |
| 2026-02-17 13:51 | 47.50637 | 8.82448 | 16090 ft | 411 kts | 73° |
| 2026-02-17 13:51 | 47.51201 | 8.86609 | 16677 ft | 413 kts | 71° |
| 2026-02-17 13:51 | 47.52219 | 8.90538 | 17244 ft | 403 kts | 53° |
| 2026-02-17 13:52 | 47.53859 | 8.93748 | 17818 ft | 391 kts | 36° |
| 2026-02-17 13:52 | 47.55993 | 8.96127 | 18371 ft | 379 kts | 21° |
| 2026-02-17 13:52 | 47.58313 | 8.98003 | 18925 ft | 379 kts | 20° |
| 2026-02-17 13:52 | 47.59490 | 8.98953 | 19196 ft | 380 kts | 20° |
| 2026-02-17 13:53 | 47.61867 | 9.00915 | 19730 ft | 382 kts | 20° |
| 2026-02-17 13:53 | 47.64210 | 9.02833 | 20239 ft | 383 kts | 19° |
| 2026-02-17 13:53 | 47.66557 | 9.04743 | 20759 ft | 385 kts | 19° |
| 2026-02-17 13:53 | 47.68910 | 9.06650 | 21284 ft | 385 kts | 17° |
| 2026-02-17 13:54 | 47.71353 | 9.08039 | 21760 ft | 369 kts | 2° |
| 2026-02-17 13:54 | 47.73871 | 9.08561 | 22276 ft | 364 kts | 358° |
| 2026-02-17 13:54 | 47.76435 | 9.08993 | 22816 ft | 364 kts | 357° |
| 2026-02-17 13:55 | 47.81668 | 9.09844 | 23782 ft | 366 kts | 357° |
| 2026-02-17 13:55 | 47.83996 | 9.10221 | 24174 ft | 366 kts | 357° |
| 2026-02-17 13:55 | 47.86539 | 9.10639 | 24617 ft | 365 kts | 356° |
| 2026-02-17 13:55 | 47.89065 | 9.11057 | 25035 ft | 365 kts | 356° |
| 2026-02-17 13:56 | 47.91635 | 9.11487 | 25469 ft | 365 kts | 356° |
| 2026-02-17 13:56 | 47.94170 | 9.11912 | 25898 ft | 365 kts | 356° |
| 2026-02-17 13:56 | 47.96955 | 9.12371 | 26347 ft | 365 kts | 356° |
| 2026-02-17 13:56 | 47.99200 | 9.12737 | 26691 ft | 365 kts | 356° |
| 2026-02-17 13:57 | 48.01727 | 9.13152 | 27068 ft | 365 kts | 356° |
| 2026-02-17 13:57 | 48.04265 | 9.13573 | 27443 ft | 365 kts | 356° |
| 2026-02-17 13:57 | 48.06772 | 9.13989 | 27803 ft | 365 kts | 356° |
| 2026-02-17 13:57 | 48.09298 | 9.14408 | 28164 ft | 366 kts | 356° |
| 2026-02-17 13:58 | 48.11837 | 9.14831 | 28510 ft | 366 kts | 356° |
| 2026-02-17 13:58 | 48.14364 | 9.15256 | 28977 ft | 363 kts | 356° |
| 2026-02-17 13:58 | 48.16870 | 9.15683 | 29523 ft | 359 kts | 355° |
| 2026-02-17 13:59 | 48.21796 | 9.16521 | 30487 ft | 352 kts | 355° |
| 2026-02-17 13:59 | 48.24193 | 9.16923 | 30875 ft | 350 kts | 355° |
| 2026-02-17 13:59 | 48.26611 | 9.17325 | 31251 ft | 348 kts | 355° |
| 2026-02-17 13:59 | 48.28380 | 9.17618 | 31526 ft | 347 kts | 355° |
| 2026-02-17 14:00 | 48.30781 | 9.18018 | 31821 ft | 346 kts | 355° |
| 2026-02-17 14:00 | 48.35559 | 9.18818 | 31868 ft | 347 kts | 355° |
| 2026-02-17 14:01 | 48.40378 | 9.19638 | 31869 ft | 348 kts | 355° |
| 2026-02-17 14:01 | 48.45252 | 9.20463 | 31862 ft | 349 kts | 355° |
| 2026-02-17 14:02 | 48.50050 | 9.21269 | 31865 ft | 349 kts | 355° |
| 2026-02-17 14:02 | 48.54871 | 9.22076 | 31861 ft | 350 kts | 355° |
| 2026-02-17 14:03 | 48.62106 | 9.23304 | 31871 ft | 350 kts | 355° |
| 2026-02-17 14:03 | 48.66964 | 9.24128 | 31865 ft | 350 kts | 355° |
| 2026-02-17 14:04 | 48.71800 | 9.24955 | 31857 ft | 351 kts | 355° |
| 2026-02-17 14:04 | 48.76671 | 9.25792 | 31857 ft | 352 kts | 355° |
| 2026-02-17 14:05 | 48.81594 | 9.26636 | 31862 ft | 361 kts | 355° |
| 2026-02-17 14:05 | 48.86631 | 9.27491 | 31863 ft | 365 kts | 355° |
| 2026-02-17 14:06 | 48.91668 | 9.28364 | 31855 ft | 367 kts | 355° |
| 2026-02-17 14:07 | 48.99322 | 9.29691 | 31853 ft | 369 kts | 356° |
| 2026-02-17 14:07 | 49.04399 | 9.30567 | 31843 ft | 369 kts | 356° |
| 2026-02-17 14:08 | 49.09518 | 9.31451 | 31840 ft | 370 kts | 356° |
| 2026-02-17 14:08 | 49.14646 | 9.32337 | 31837 ft | 371 kts | 356° |
| 2026-02-17 14:09 | 49.19786 | 9.33230 | 31833 ft | 372 kts | 356° |
| 2026-02-17 14:09 | 49.24951 | 9.34136 | 31830 ft | 373 kts | 356° |
| 2026-02-17 14:10 | 49.30091 | 9.35033 | 31832 ft | 374 kts | 356° |
| 2026-02-17 14:10 | 49.35263 | 9.35932 | 31831 ft | 376 kts | 356° |
| 2026-02-17 14:11 | 49.43076 | 9.37301 | 31823 ft | 377 kts | 356° |
| 2026-02-17 14:11 | 49.48291 | 9.38214 | 31822 ft | 379 kts | 356° |
| 2026-02-17 14:12 | 49.53562 | 9.39146 | 31826 ft | 380 kts | 356° |
| 2026-02-17 14:12 | 49.58811 | 9.40074 | 31821 ft | 382 kts | 356° |
| 2026-02-17 14:13 | 49.64115 | 9.41018 | 31820 ft | 383 kts | 357° |
| 2026-02-17 14:13 | 49.69412 | 9.41962 | 31821 ft | 385 kts | 357° |
| 2026-02-17 14:14 | 49.74752 | 9.42907 | 31818 ft | 386 kts | 357° |
| 2026-02-17 14:15 | 49.82794 | 9.44338 | 31812 ft | 388 kts | 357° |
| 2026-02-17 14:15 | 49.88141 | 9.45293 | 31814 ft | 389 kts | 357° |
| 2026-02-17 14:16 | 49.93552 | 9.46263 | 31809 ft | 390 kts | 357° |
| 2026-02-17 14:16 | 49.98938 | 9.47233 | 31808 ft | 392 kts | 357° |
| 2026-02-17 14:17 | 50.04330 | 9.47598 | 31809 ft | 380 kts | 345° |
| 2026-02-17 14:17 | 50.09225 | 9.45063 | 31802 ft | 368 kts | 327° |
| 2026-02-17 14:18 | 50.13287 | 9.40314 | 31800 ft | 367 kts | 320° |
| 2026-02-17 14:18 | 50.17277 | 9.35274 | 31800 ft | 368 kts | 320° |
| 2026-02-17 14:19 | 50.26830 | 9.23151 | 31807 ft | 368 kts | 320° |
| 2026-02-17 14:19 | 50.30804 | 9.18076 | 31814 ft | 368 kts | 320° |
| 2026-02-17 14:20 | 50.34125 | 9.13834 | 31817 ft | 368 kts | 320° |
| 2026-02-17 14:20 | 50.38078 | 9.08797 | 31839 ft | 366 kts | 320° |
| 2026-02-17 14:21 | 50.42010 | 9.03763 | 31628 ft | 361 kts | 320° |
| 2026-02-17 14:21 | 50.43956 | 9.01273 | 31325 ft | 359 kts | 320° |
| 2026-02-17 14:21 | 50.45889 | 8.98786 | 31022 ft | 359 kts | 320° |
| 2026-02-17 14:22 | 50.47833 | 8.96277 | 30725 ft | 360 kts | 320° |
| 2026-02-17 14:22 | 50.51696 | 8.91288 | 30144 ft | 361 kts | 320° |
| 2026-02-17 14:23 | 50.55646 | 8.86327 | 29494 ft | 364 kts | 321° |
| 2026-02-17 14:23 | 50.57630 | 8.83966 | 29168 ft | 366 kts | 321° |
| 2026-02-17 14:23 | 50.59708 | 8.81515 | 28809 ft | 368 kts | 321° |
| 2026-02-17 14:23 | 50.61767 | 8.79083 | 28468 ft | 371 kts | 321° |
| 2026-02-17 14:24 | 50.63819 | 8.76650 | 28126 ft | 373 kts | 321° |
| 2026-02-17 14:24 | 50.65896 | 8.74166 | 27805 ft | 375 kts | 321° |
| 2026-02-17 14:24 | 50.67991 | 8.71653 | 27474 ft | 378 kts | 321° |
| 2026-02-17 14:24 | 50.70095 | 8.69117 | 27148 ft | 380 kts | 321° |
| 2026-02-17 14:25 | 50.72203 | 8.66562 | 26763 ft | 382 kts | 321° |
| 2026-02-17 14:25 | 50.74285 | 8.64029 | 26236 ft | 381 kts | 321° |
| 2026-02-17 14:25 | 50.76399 | 8.61466 | 25715 ft | 380 kts | 321° |
| 2026-02-17 14:25 | 50.78478 | 8.58946 | 25210 ft | 380 kts | 320° |
| 2026-02-17 14:26 | 50.80571 | 8.56402 | 24713 ft | 379 kts | 320° |
| 2026-02-17 14:26 | 50.82679 | 8.53844 | 24209 ft | 378 kts | 320° |
| 2026-02-17 14:26 | 50.84745 | 8.51339 | 23739 ft | 378 kts | 320° |
| 2026-02-17 14:27 | 50.88921 | 8.46248 | 22660 ft | 377 kts | 320° |
| 2026-02-17 14:27 | 50.90971 | 8.43741 | 22096 ft | 376 kts | 320° |
| 2026-02-17 14:27 | 50.93051 | 8.41204 | 21544 ft | 375 kts | 320° |
| 2026-02-17 14:27 | 50.95116 | 8.38689 | 20999 ft | 374 kts | 320° |
| 2026-02-17 14:28 | 50.97174 | 8.36167 | 20457 ft | 373 kts | 320° |
| 2026-02-17 14:28 | 50.99223 | 8.33643 | 19929 ft | 372 kts | 320° |
| 2026-02-17 14:28 | 51.01251 | 8.31166 | 19393 ft | 371 kts | 322° |
| 2026-02-17 14:28 | 51.03463 | 8.29030 | 18866 ft | 372 kts | 328° |
| 2026-02-17 14:29 | 51.05728 | 8.27027 | 18344 ft | 371 kts | 327° |
| 2026-02-17 14:29 | 51.07778 | 8.24613 | 17784 ft | 365 kts | 313° |
| 2026-02-17 14:29 | 51.09249 | 8.21376 | 17179 ft | 360 kts | 296° |
| 2026-02-17 14:29 | 51.10323 | 8.17784 | 16604 ft | 355 kts | 295° |
| 2026-02-17 14:30 | 51.11339 | 8.14327 | 16052 ft | 352 kts | 295° |
| 2026-02-17 14:30 | 51.12391 | 8.10733 | 15511 ft | 347 kts | 294° |
| 2026-02-17 14:31 | 51.15346 | 8.00531 | 14326 ft | 330 kts | 294° |
| 2026-02-17 14:31 | 51.16300 | 7.97220 | 13945 ft | 324 kts | 294° |
| 2026-02-17 14:31 | 51.17235 | 7.93979 | 13561 ft | 319 kts | 294° |
| 2026-02-17 14:31 | 51.18145 | 7.90829 | 13141 ft | 314 kts | 294° |
| 2026-02-17 14:32 | 51.19055 | 7.87677 | 12712 ft | 309 kts | 294° |
| 2026-02-17 14:32 | 51.19951 | 7.84573 | 12307 ft | 305 kts | 294° |
| 2026-02-17 14:32 | 51.20825 | 7.81542 | 11876 ft | 293 kts | 294° |
| 2026-02-17 14:32 | 51.21652 | 7.78665 | 11449 ft | 278 kts | 294° |
| 2026-02-17 14:33 | 51.22432 | 7.75949 | 11030 ft | 266 kts | 295° |
| 2026-02-17 14:33 | 51.23925 | 7.70716 | 10198 ft | 254 kts | 294° |
| 2026-02-17 14:33 | 51.24655 | 7.68153 | 9782 ft | 253 kts | 295° |
| 2026-02-17 14:34 | 51.25355 | 7.65708 | 9451 ft | 252 kts | 295° |
| 2026-02-17 14:34 | 51.26060 | 7.63244 | 9099 ft | 250 kts | 295° |
| 2026-02-17 14:34 | 51.26777 | 7.60733 | 8857 ft | 247 kts | 295° |
| 2026-02-17 14:35 | 51.28208 | 7.55715 | 8839 ft | 248 kts | 295° |
| 2026-02-17 14:35 | 51.28923 | 7.53200 | 8844 ft | 248 kts | 295° |
| 2026-02-17 14:35 | 51.29631 | 7.50702 | 8588 ft | 247 kts | 294° |
| 2026-02-17 14:35 | 51.30338 | 7.48202 | 8327 ft | 246 kts | 294° |
| 2026-02-17 14:36 | 51.31032 | 7.45743 | 8054 ft | 245 kts | 295° |
| 2026-02-17 14:36 | 51.31739 | 7.43244 | 7702 ft | 244 kts | 295° |
| 2026-02-17 14:36 | 51.32438 | 7.40779 | 7329 ft | 242 kts | 295° |
| 2026-02-17 14:36 | 51.33132 | 7.38328 | 6970 ft | 241 kts | 295° |
| 2026-02-17 14:37 | 51.33820 | 7.35893 | 6623 ft | 239 kts | 295° |
| 2026-02-17 14:37 | 51.34500 | 7.33480 | 6281 ft | 236 kts | 295° |
| 2026-02-17 14:37 | 51.35161 | 7.31124 | 5940 ft | 232 kts | 294° |
| 2026-02-17 14:37 | 51.35819 | 7.28777 | 5585 ft | 228 kts | 294° |
| 2026-02-17 14:38 | 51.36467 | 7.26471 | 5246 ft | 225 kts | 294° |
| 2026-02-17 14:38 | 51.37103 | 7.24210 | 4947 ft | 220 kts | 294° |
| 2026-02-17 14:38 | 51.37718 | 7.22018 | 4671 ft | 216 kts | 294° |
| 2026-02-17 14:39 | 51.38911 | 7.17763 | 4130 ft | 206 kts | 294° |
| 2026-02-17 14:39 | 51.39330 | 7.15637 | 3874 ft | 203 kts | 274° |
| 2026-02-17 14:39 | 51.39203 | 7.13409 | 3611 ft | 201 kts | 264° |
| 2026-02-17 14:39 | 51.38959 | 7.11196 | 3350 ft | 198 kts | 263° |
| 2026-02-17 14:40 | 51.38717 | 7.09049 | 3118 ft | 192 kts | 265° |
| 2026-02-17 14:40 | 51.38564 | 7.06968 | 3007 ft | 183 kts | 268° |
| 2026-02-17 14:40 | 51.38333 | 7.03220 | 3007 ft | 159 kts | 268° |
| 2026-02-17 14:41 | 51.38218 | 7.01464 | 3007 ft | 157 kts | 268° |
| 2026-02-17 14:41 | 51.38103 | 6.99724 | 2997 ft | 157 kts | 268° |
| 2026-02-17 14:41 | 51.37989 | 6.98006 | 2999 ft | 157 kts | 268° |
| 2026-02-17 14:41 | 51.37832 | 6.96268 | 2954 ft | 161 kts | 258° |
| 2026-02-17 14:42 | 51.37224 | 6.94707 | 2812 ft | 168 kts | 240° |
| 2026-02-17 14:42 | 51.36518 | 6.93225 | 2599 ft | 167 kts | 240° |
| 2026-02-17 14:42 | 51.35822 | 6.91760 | 2362 ft | 163 kts | 241° |
| 2026-02-17 14:43 | 51.34453 | 6.88872 | 1916 ft | 156 kts | 240° |
| 2026-02-17 14:43 | 51.33822 | 6.87543 | 1712 ft | 149 kts | 240° |
| 2026-02-17 14:43 | 51.33202 | 6.86235 | 1503 ft | 145 kts | 239° |
| 2026-02-17 14:43 | 51.32610 | 6.84990 | 1352 ft | 134 kts | 239° |
| 2026-02-17 14:44 | 51.32054 | 6.83815 | 1167 ft | 131 kts | 239° |
| 2026-02-17 14:44 | 51.31505 | 6.82646 | 938 ft | 131 kts | 237° |
| 2026-02-17 14:44 | 51.30957 | 6.81493 | 712 ft | 132 kts | 237° |
| 2026-02-17 14:44 | 51.30400 | 6.80329 | 530 ft | 131 kts | 236° |
| 2026-02-17 14:45 | 51.29847 | 6.79169 | 332 ft | 131 kts | 238° |
| 2026-02-17 14:45 | 51.29302 | 6.78025 | 170 ft | 130 kts | 237° |
| 2026-02-17 14:45 | 51.28802 | 6.76966 | 128 ft | 106 kts | 235° |
| 2026-02-17 14:45 | 51.28466 | 6.76260 | 128 ft | 44 kts | 231° |
| 2026-02-17 14:46 | 51.28265 | 6.76042 | 126 ft | 29 kts | 176° |
| 2026-02-17 14:46 | 51.28206 | 6.76075 | 126 ft | 0 kts | 154° |
| 2026-02-17 14:47 | 51.28194 | 6.76084 | 127 ft | 10 kts | 154° |
| 2026-02-17 14:47 | 51.28122 | 6.76006 | 127 ft | 17 kts | 233° |
| 2026-02-17 14:47 | 51.28051 | 6.75857 | 128 ft | 17 kts | 232° |
| 2026-02-17 14:47 | 51.27946 | 6.75819 | 128 ft | 20 kts | 182° |
| 2026-02-17 14:48 | 51.27846 | 6.75875 | 128 ft | 15 kts | 107° |
| 2026-02-17 14:48 | 51.27843 | 6.76025 | 129 ft | 13 kts | 91° |
| 2026-02-17 14:48 | 51.27840 | 6.76165 | 128 ft | 12 kts | 91° |
| 2026-02-17 14:48 | 51.27840 | 6.76289 | 129 ft | 10 kts | 90° |
| 2026-02-17 14:49 | 51.27853 | 6.76366 | 127 ft | 3 kts | 44° |
| 2026-02-17 14:49 | 51.27869 | 6.76390 | 127 ft | 1 kts | 44° |